sensor_id;sensor_type;location;lat;lon;timestamp;pressure;altitude;pressure_sealevel;temperature;humidity
72925;BME280;61070;50.794;7.054;2022-08-25T00:00:48;101068.34;;;23.14;42.56
72925;BME280;61070;50.794;7.054;2022-08-25T00:03:14;101056.84;;;23.11;42.95
72925;BME280;61070;50.794;7.054;2022-08-25T00:05:40;101059.81;;;23.06;42.78
72925;BME280;61070;50.794;7.054;2022-08-25T00:08:06;101048.22;;;23.04;43.08
72925;BME280;61070;50.794;7.054;2022-08-25T00:10:34;101048.22;;;23.04;43.16
72925;BME280;61070;50.794;7.054;2022-08-25T00:13:01;101069.84;;;23.04;43.29
72925;BME280;61070;50.794;7.054;2022-08-25T00:15:27;101058.34;;;23.01;43.37
72925;BME280;61070;50.794;7.054;2022-08-25T00:17:55;101063.91;;;22.98;43.31
72925;BME280;61070;50.794;7.054;2022-08-25T00:20:22;101055.75;;;22.99;43.39
72925;BME280;61070;50.794;7.054;2022-08-25T00:22:48;101053.09;;;22.98;43.46
72925;BME280;61070;50.794;7.054;2022-08-25T00:25:13;101057.53;;;22.99;43.33
72925;BME280;61070;50.794;7.054;2022-08-25T00:27:39;101051.00;;;23.03;43.41
72925;BME280;61070;50.794;7.054;2022-08-25T00:30:05;101051.63;;;22.92;43.85
72925;BME280;61070;50.794;7.054;2022-08-25T00:32:31;101056.94;;;22.93;43.70
72925;BME280;61070;50.794;7.054;2022-08-25T00:34:56;101056.34;;;22.88;43.87
72925;BME280;61070;50.794;7.054;2022-08-25T00:37:21;101051.00;;;22.87;43.99
72925;BME280;61070;50.794;7.054;2022-08-25T00:39:47;101053.66;;;22.88;43.79
72925;BME280;61070;50.794;7.054;2022-08-25T00:42:12;101053.03;;;22.83;44.15
72925;BME280;61070;50.794;7.054;2022-08-25T00:44:38;101052.41;;;22.78;43.87
72925;BME280;61070;50.794;7.054;2022-08-25T00:47:04;101056.50;;;22.85;43.58
72925;BME280;61070;50.794;7.054;2022-08-25T00:49:47;101054.75;;;22.84;43.50
72925;BME280;61070;50.794;7.054;2022-08-25T00:52:21;101051.53;;;22.78;43.53
72925;BME280;61070;50.794;7.054;2022-08-25T00:54:57;101055.63;;;22.69;43.83
72925;BME280;61070;50.794;7.054;2022-08-25T00:57:38;101056.13;;;22.60;44.20
72925;BME280;61070;50.794;7.054;2022-08-25T01:00:18;101050.91;;;22.57;44.28
72925;BME280;61070;50.794;7.054;2022-08-25T01:02:44;101056.53;;;22.36;44.81
72925;BME280;61070;50.794;7.054;2022-08-25T01:05:10;101053.38;;;22.28;45.13
72925;BME280;61070;50.794;7.054;2022-08-25T01:07:36;101051.66;;;22.27;45.58
72925;BME280;61070;50.794;7.054;2022-08-25T01:10:03;101053.88;;;22.19;45.86
72925;BME280;61070;50.794;7.054;2022-08-25T01:12:32;101061.63;;;22.10;46.13
72925;BME280;61070;50.794;7.054;2022-08-25T01:14:57;101051.03;;;22.05;46.68
72925;BME280;61070;50.794;7.054;2022-08-25T01:17:23;101049.78;;;21.95;46.64
72925;BME280;61070;50.794;7.054;2022-08-25T01:19:51;101049.25;;;21.88;47.03
72925;BME280;61070;50.794;7.054;2022-08-25T01:22:17;101053.13;;;21.83;47.34
72925;BME280;61070;50.794;7.054;2022-08-25T01:27:17;101053.97;;;21.67;47.94
72925;BME280;61070;50.794;7.054;2022-08-25T01:29:43;101054.03;;;21.66;47.66
72925;BME280;61070;50.794;7.054;2022-08-25T01:32:10;101055.78;;;21.67;47.69
72925;BME280;61070;50.794;7.054;2022-08-25T01:34:39;101060.47;;;21.63;47.91
72925;BME280;61070;50.794;7.054;2022-08-25T01:37:06;101059.53;;;21.64;47.97
72925;BME280;61070;50.794;7.054;2022-08-25T01:39:32;101055.88;;;21.65;48.05
72925;BME280;61070;50.794;7.054;2022-08-25T01:44:34;101056.16;;;21.59;47.88
72925;BME280;61070;50.794;7.054;2022-08-25T01:47:01;101057.78;;;21.63;48.01
72925;BME280;61070;50.794;7.054;2022-08-25T01:49:27;101055.09;;;21.63;47.71
72925;BME280;61070;50.794;7.054;2022-08-25T01:51:56;101051.25;;;21.67;47.41
72925;BME280;61070;50.794;7.054;2022-08-25T01:54:24;101042.13;;;21.70;47.11
72925;BME280;61070;50.794;7.054;2022-08-25T01:56:49;101044.81;;;21.70;47.12
72925;BME280;61070;50.794;7.054;2022-08-25T01:59:17;101043.38;;;21.80;46.56
72925;BME280;61070;50.794;7.054;2022-08-25T02:01:43;101053.78;;;21.70;46.96
72925;BME280;61070;50.794;7.054;2022-08-25T02:04:08;101052.31;;;21.65;47.00
72925;BME280;61070;50.794;7.054;2022-08-25T02:06:34;101051.44;;;21.64;47.09
72925;BME280;61070;50.794;7.054;2022-08-25T02:09:04;101064.09;;;21.62;47.22
72925;BME280;61070;50.794;7.054;2022-08-25T02:11:30;101064.19;;;21.61;47.08
72925;BME280;61070;50.794;7.054;2022-08-25T02:13:56;101058.16;;;21.56;47.48
72925;BME280;61070;50.794;7.054;2022-08-25T02:16:26;101068.25;;;21.52;47.28
72925;BME280;61070;50.794;7.054;2022-08-25T02:18:52;101060.44;;;21.46;47.55
72925;BME280;61070;50.794;7.054;2022-08-25T02:21:18;101064.97;;;21.45;47.55
72925;BME280;61070;50.794;7.054;2022-08-25T02:23:43;101063.84;;;21.49;47.68
72925;BME280;61070;50.794;7.054;2022-08-25T02:26:09;101062.44;;;21.42;47.60
72925;BME280;61070;50.794;7.054;2022-08-25T02:28:35;101068.94;;;21.38;47.63
72925;BME280;61070;50.794;7.054;2022-08-25T02:31:02;101066.41;;;21.35;47.84
72925;BME280;61070;50.794;7.054;2022-08-25T02:33:28;101067.66;;;21.28;47.84
72925;BME280;61070;50.794;7.054;2022-08-25T02:35:56;101071.94;;;21.32;48.20
72925;BME280;61070;50.794;7.054;2022-08-25T02:38:22;101067.06;;;21.21;48.39
72925;BME280;61070;50.794;7.054;2022-08-25T02:40:47;101071.75;;;21.18;48.54
72925;BME280;61070;50.794;7.054;2022-08-25T02:43:13;101074.50;;;21.16;48.71
72925;BME280;61070;50.794;7.054;2022-08-25T02:45:38;101062.03;;;21.14;48.88
72925;BME280;61070;50.794;7.054;2022-08-25T02:48:03;101071.16;;;21.11;48.67
72925;BME280;61070;50.794;7.054;2022-08-25T02:50:29;101067.75;;;21.08;49.24
72925;BME280;61070;50.794;7.054;2022-08-25T02:52:54;101058.06;;;21.04;49.08
72925;BME280;61070;50.794;7.054;2022-08-25T02:55:20;101053.78;;;21.00;49.01
72925;BME280;61070;50.794;7.054;2022-08-25T02:57:45;101059.34;;;20.97;49.22
72925;BME280;61070;50.794;7.054;2022-08-25T03:00:13;101057.97;;;20.88;49.82
72925;BME280;61070;50.794;7.054;2022-08-25T03:02:39;101052.66;;;20.86;49.77
72925;BME280;61070;50.794;7.054;2022-08-25T03:05:06;101044.66;;;20.85;50.67
72925;BME280;61070;50.794;7.054;2022-08-25T03:07:34;101040.41;;;20.79;50.83
72925;BME280;61070;50.794;7.054;2022-08-25T03:10:04;101042.31;;;20.77;51.05
72925;BME280;61070;50.794;7.054;2022-08-25T03:12:30;101039.78;;;20.74;51.41
72925;BME280;61070;50.794;7.054;2022-08-25T03:14:55;101033.03;;;20.66;51.87
72925;BME280;61070;50.794;7.054;2022-08-25T03:17:20;101028.59;;;20.64;51.54
72925;BME280;61070;50.794;7.054;2022-08-25T03:19:45;101026.97;;;20.60;52.10
72925;BME280;61070;50.794;7.054;2022-08-25T03:22:11;101030.69;;;20.58;52.02
72925;BME280;61070;50.794;7.054;2022-08-25T03:24:36;101025.38;;;20.56;52.22
72925;BME280;61070;50.794;7.054;2022-08-25T03:27:01;101026.34;;;20.55;52.11
72925;BME280;61070;50.794;7.054;2022-08-25T03:29:31;101026.09;;;20.60;52.18
72925;BME280;61070;50.794;7.054;2022-08-25T03:31:57;101025.53;;;20.53;52.12
72925;BME280;61070;50.794;7.054;2022-08-25T03:34:24;101019.47;;;20.48;52.29
72925;BME280;61070;50.794;7.054;2022-08-25T03:36:51;101023.19;;;20.46;52.19
72925;BME280;61070;50.794;7.054;2022-08-25T03:39:19;101020.72;;;20.41;52.48
72925;BME280;61070;50.794;7.054;2022-08-25T03:41:44;101018.53;;;20.30;53.15
72925;BME280;61070;50.794;7.054;2022-08-25T03:44:12;101027.88;;;20.22;53.51
72925;BME280;61070;50.794;7.054;2022-08-25T03:46:42;101018.06;;;20.21;53.66
72925;BME280;61070;50.794;7.054;2022-08-25T03:49:11;101021.63;;;20.21;53.44
72925;BME280;61070;50.794;7.054;2022-08-25T03:51:40;101018.59;;;20.29;52.82
72925;BME280;61070;50.794;7.054;2022-08-25T03:54:08;101016.09;;;20.24;53.13
72925;BME280;61070;50.794;7.054;2022-08-25T03:56:34;101011.75;;;20.22;53.23
72925;BME280;61070;50.794;7.054;2022-08-25T03:59:00;101007.25;;;20.22;53.70
72925;BME280;61070;50.794;7.054;2022-08-25T04:01:25;101001.56;;;20.10;53.63
72925;BME280;61070;50.794;7.054;2022-08-25T04:03:51;100993.50;;;20.10;53.88
72925;BME280;61070;50.794;7.054;2022-08-25T04:06:18;100997.47;;;20.01;54.23
72925;BME280;61070;50.794;7.054;2022-08-25T04:08:43;100998.06;;;20.08;54.59
72925;BME280;61070;50.794;7.054;2022-08-25T04:11:17;100994.78;;;20.01;54.65
72925;BME280;61070;50.794;7.054;2022-08-25T04:13:43;101006.41;;;20.01;54.90
72925;BME280;61070;50.794;7.054;2022-08-25T04:16:12;101006.78;;;19.94;54.88
72925;BME280;61070;50.794;7.054;2022-08-25T04:18:41;101001.53;;;19.91;55.01
72925;BME280;61070;50.794;7.054;2022-08-25T04:21:08;101002.63;;;19.87;55.24
72925;BME280;61070;50.794;7.054;2022-08-25T04:23:39;101003.63;;;19.84;55.17
72925;BME280;61070;50.794;7.054;2022-08-25T04:26:14;101007.47;;;19.78;55.56
72925;BME280;61070;50.794;7.054;2022-08-25T04:28:39;101014.81;;;19.75;56.06
72925;BME280;61070;50.794;7.054;2022-08-25T04:31:07;101006.81;;;19.73;56.17
72925;BME280;61070;50.794;7.054;2022-08-25T04:33:33;101006.88;;;19.72;55.82
72925;BME280;61070;50.794;7.054;2022-08-25T04:35:58;100998.38;;;19.81;55.45
72925;BME280;61070;50.794;7.054;2022-08-25T04:38:23;101003.38;;;19.70;55.61
72925;BME280;61070;50.794;7.054;2022-08-25T04:40:59;100999.16;;;19.64;55.75
72925;BME280;61070;50.794;7.054;2022-08-25T04:43:25;101002.94;;;19.60;55.84
72925;BME280;61070;50.794;7.054;2022-08-25T04:45:52;101002.47;;;19.71;55.19
72925;BME280;61070;50.794;7.054;2022-08-25T04:48:18;101006.00;;;19.71;55.19
72925;BME280;61070;50.794;7.054;2022-08-25T04:50:43;101008.09;;;19.65;55.82
72925;BME280;61070;50.794;7.054;2022-08-25T04:53:09;101001.91;;;19.63;55.79
72925;BME280;61070;50.794;7.054;2022-08-25T04:55:47;101008.75;;;19.70;55.47
72925;BME280;61070;50.794;7.054;2022-08-25T04:58:14;101003.19;;;19.74;55.63
72925;BME280;61070;50.794;7.054;2022-08-25T05:00:41;101002.97;;;19.79;55.35
72925;BME280;61070;50.794;7.054;2022-08-25T05:03:07;100996.53;;;19.83;55.46
72925;BME280;61070;50.794;7.054;2022-08-25T05:05:35;100988.31;;;19.86;55.27
72925;BME280;61070;50.794;7.054;2022-08-25T05:08:01;100998.03;;;19.89;55.37
72925;BME280;61070;50.794;7.054;2022-08-25T05:10:26;100996.03;;;19.94;55.58
72925;BME280;61070;50.794;7.054;2022-08-25T05:12:52;101006.72;;;19.95;55.66
72925;BME280;61070;50.794;7.054;2022-08-25T05:15:17;101010.28;;;19.96;55.82
72925;BME280;61070;50.794;7.054;2022-08-25T05:18:01;101001.34;;;19.95;55.91
72925;BME280;61070;50.794;7.054;2022-08-25T05:20:27;101008.72;;;19.90;56.44
72925;BME280;61070;50.794;7.054;2022-08-25T05:22:52;101002.06;;;19.99;56.33
72925;BME280;61070;50.794;7.054;2022-08-25T05:25:17;100998.94;;;20.08;55.98
72925;BME280;61070;50.794;7.054;2022-08-25T05:27:43;100983.53;;;20.12;56.18
72925;BME280;61070;50.794;7.054;2022-08-25T05:30:10;100997.50;;;20.20;55.86
72925;BME280;61070;50.794;7.054;2022-08-25T05:32:36;100993.16;;;20.17;56.11
72925;BME280;61070;50.794;7.054;2022-08-25T05:35:02;100988.13;;;20.28;55.52
72925;BME280;61070;50.794;7.054;2022-08-25T05:37:28;100984.25;;;20.34;55.12
72925;BME280;61070;50.794;7.054;2022-08-25T05:39:53;100984.84;;;20.41;55.12
72925;BME280;61070;50.794;7.054;2022-08-25T05:42:18;100996.78;;;20.54;54.49
72925;BME280;61070;50.794;7.054;2022-08-25T05:44:44;100990.09;;;20.62;55.11
72925;BME280;61070;50.794;7.054;2022-08-25T05:47:09;100985.53;;;20.82;54.67
72925;BME280;61070;50.794;7.054;2022-08-25T05:49:34;100978.03;;;20.88;54.77
72925;BME280;61070;50.794;7.054;2022-08-25T05:51:59;100984.63;;;21.00;54.48
72925;BME280;61070;50.794;7.054;2022-08-25T05:54:25;100979.63;;;21.10;54.07
72925;BME280;61070;50.794;7.054;2022-08-25T05:56:50;100974.09;;;21.13;53.78
72925;BME280;61070;50.794;7.054;2022-08-25T05:59:16;100969.25;;;21.19;53.79
72925;BME280;61070;50.794;7.054;2022-08-25T06:01:41;100970.56;;;21.30;53.70
72925;BME280;61070;50.794;7.054;2022-08-25T06:04:25;100974.28;;;21.44;53.09
72925;BME280;61070;50.794;7.054;2022-08-25T06:06:50;100966.97;;;21.46;53.13
72925;BME280;61070;50.794;7.054;2022-08-25T06:09:18;100970.06;;;21.56;52.84
72925;BME280;61070;50.794;7.054;2022-08-25T06:11:44;100974.25;;;21.62;52.63
72925;BME280;61070;50.794;7.054;2022-08-25T06:14:11;100987.16;;;21.72;52.21
72925;BME280;61070;50.794;7.054;2022-08-25T06:16:37;100984.44;;;21.72;51.99
72925;BME280;61070;50.794;7.054;2022-08-25T06:19:03;100982.03;;;21.84;51.68
72925;BME280;61070;50.794;7.054;2022-08-25T06:21:29;100989.72;;;21.91;51.59
72925;BME280;61070;50.794;7.054;2022-08-25T06:23:54;100986.78;;;21.96;51.27
72925;BME280;61070;50.794;7.054;2022-08-25T06:26:20;100983.28;;;21.94;51.46
72925;BME280;61070;50.794;7.054;2022-08-25T06:28:45;100988.03;;;22.06;51.01
72925;BME280;61070;50.794;7.054;2022-08-25T06:31:11;100987.22;;;22.21;50.89
72925;BME280;61070;50.794;7.054;2022-08-25T06:33:36;100996.47;;;22.33;50.56
72925;BME280;61070;50.794;7.054;2022-08-25T06:36:02;100996.69;;;22.28;50.78
72925;BME280;61070;50.794;7.054;2022-08-25T06:38:27;100996.88;;;22.25;50.33
72925;BME280;61070;50.794;7.054;2022-08-25T06:40:53;100998.63;;;22.26;50.34
72925;BME280;61070;50.794;7.054;2022-08-25T06:43:21;101000.13;;;22.48;50.33
72925;BME280;61070;50.794;7.054;2022-08-25T06:45:46;100991.75;;;22.52;49.97
72925;BME280;61070;50.794;7.054;2022-08-25T06:48:12;101002.47;;;22.54;49.84
72925;BME280;61070;50.794;7.054;2022-08-25T06:50:39;101003.25;;;22.72;49.85
72925;BME280;61070;50.794;7.054;2022-08-25T06:53:05;101009.81;;;22.83;49.65
72925;BME280;61070;50.794;7.054;2022-08-25T06:55:31;101004.88;;;23.06;48.53
72925;BME280;61070;50.794;7.054;2022-08-25T06:57:58;101002.56;;;23.00;48.61
72925;BME280;61070;50.794;7.054;2022-08-25T07:00:24;101002.00;;;23.09;48.56
72925;BME280;61070;50.794;7.054;2022-08-25T07:02:49;101000.25;;;23.08;48.59
72925;BME280;61070;50.794;7.054;2022-08-25T07:05:14;100996.88;;;23.34;48.37
72925;BME280;61070;50.794;7.054;2022-08-25T07:07:40;101001.03;;;23.40;48.08
72925;BME280;61070;50.794;7.054;2022-08-25T07:10:05;100997.78;;;23.49;47.99
72925;BME280;61070;50.794;7.054;2022-08-25T07:12:31;100987.84;;;23.49;48.49
72925;BME280;61070;50.794;7.054;2022-08-25T07:14:56;100988.84;;;23.63;47.80
72925;BME280;61070;50.794;7.054;2022-08-25T07:17:22;100992.81;;;23.71;48.24
72925;BME280;61070;50.794;7.054;2022-08-25T07:19:48;100987.63;;;23.97;47.33
72925;BME280;61070;50.794;7.054;2022-08-25T07:22:13;100987.72;;;23.95;47.85
72925;BME280;61070;50.794;7.054;2022-08-25T07:24:39;100982.88;;;24.00;47.52
72925;BME280;61070;50.794;7.054;2022-08-25T07:27:05;100987.88;;;24.21;47.36
72925;BME280;61070;50.794;7.054;2022-08-25T07:29:30;100986.34;;;24.17;47.06
72925;BME280;61070;50.794;7.054;2022-08-25T07:31:58;100994.47;;;24.31;47.23
72925;BME280;61070;50.794;7.054;2022-08-25T07:34:23;100989.56;;;24.37;47.32
72925;BME280;61070;50.794;7.054;2022-08-25T07:37:07;100994.06;;;24.51;46.97
72925;BME280;61070;50.794;7.054;2022-08-25T07:39:33;100996.84;;;24.64;46.88
72925;BME280;61070;50.794;7.054;2022-08-25T07:41:59;100978.69;;;24.79;46.66
72925;BME280;61070;50.794;7.054;2022-08-25T07:44:25;100987.13;;;24.74;46.32
72925;BME280;61070;50.794;7.054;2022-08-25T07:46:51;100984.38;;;24.88;46.32
72925;BME280;61070;50.794;7.054;2022-08-25T07:49:18;100985.22;;;24.89;46.53
72925;BME280;61070;50.794;7.054;2022-08-25T07:51:45;100987.41;;;25.11;46.24
72925;BME280;61070;50.794;7.054;2022-08-25T07:54:11;100989.38;;;25.21;45.74
72925;BME280;61070;50.794;7.054;2022-08-25T07:56:36;100994.59;;;25.24;45.63
72925;BME280;61070;50.794;7.054;2022-08-25T07:59:02;100980.22;;;25.49;45.30
72925;BME280;61070;50.794;7.054;2022-08-25T08:01:27;100970.34;;;25.61;45.13
72925;BME280;61070;50.794;7.054;2022-08-25T08:03:52;100985.84;;;25.59;45.65
72925;BME280;61070;50.794;7.054;2022-08-25T08:06:21;100971.75;;;25.67;45.36
72925;BME280;61070;50.794;7.054;2022-08-25T08:08:47;100990.25;;;25.74;45.08
72925;BME280;61070;50.794;7.054;2022-08-25T08:11:18;100980.69;;;25.94;45.15
72925;BME280;61070;50.794;7.054;2022-08-25T08:13:46;100981.13;;;25.88;45.41
72925;BME280;61070;50.794;7.054;2022-08-25T08:16:13;100975.75;;;26.12;44.79
72925;BME280;61070;50.794;7.054;2022-08-25T08:18:43;100979.91;;;26.18;45.15
72925;BME280;61070;50.794;7.054;2022-08-25T08:21:18;100980.97;;;26.40;44.59
72925;BME280;61070;50.794;7.054;2022-08-25T08:23:44;100975.69;;;26.50;44.15
72925;BME280;61070;50.794;7.054;2022-08-25T08:26:10;100970.38;;;26.49;44.24
72925;BME280;61070;50.794;7.054;2022-08-25T08:28:35;100962.66;;;26.55;43.93
72925;BME280;61070;50.794;7.054;2022-08-25T08:31:01;100963.75;;;26.53;44.34
72925;BME280;61070;50.794;7.054;2022-08-25T08:33:27;100947.28;;;26.67;44.44
72925;BME280;61070;50.794;7.054;2022-08-25T08:36:00;100947.53;;;26.99;43.77
72925;BME280;61070;50.794;7.054;2022-08-25T08:38:29;100945.06;;;27.20;43.19
72925;BME280;61070;50.794;7.054;2022-08-25T08:44:06;100933.25;;;27.43;42.44
72925;BME280;61070;50.794;7.054;2022-08-25T08:46:41;100940.16;;;27.36;42.67
72925;BME280;61070;50.794;7.054;2022-08-25T08:49:27;100942.13;;;27.34;42.45
72925;BME280;61070;50.794;7.054;2022-08-25T08:51:59;100936.97;;;27.53;42.52
72925;BME280;61070;50.794;7.054;2022-08-25T08:54:28;100934.31;;;27.76;41.93
72925;BME280;61070;50.794;7.054;2022-08-25T08:57:03;100929.81;;;27.97;41.43
72925;BME280;61070;50.794;7.054;2022-08-25T08:59:40;100933.06;;;28.02;41.50
72925;BME280;61070;50.794;7.054;2022-08-25T09:02:12;100925.50;;;27.95;41.47
72925;BME280;61070;50.794;7.054;2022-08-25T09:04:47;100925.13;;;28.33;40.52
72925;BME280;61070;50.794;7.054;2022-08-25T09:07:44;100924.72;;;28.26;40.78
72925;BME280;61070;50.794;7.054;2022-08-25T09:10:06;100929.41;;;28.58;40.44
72925;BME280;61070;50.794;7.054;2022-08-25T09:12:45;100915.78;;;28.58;40.29
72925;BME280;61070;50.794;7.054;2022-08-25T09:15:19;100912.84;;;28.82;39.72
72925;BME280;61070;50.794;7.054;2022-08-25T09:18:09;100916.81;;;28.89;39.02
72925;BME280;61070;50.794;7.054;2022-08-25T09:21:02;100910.81;;;28.95;39.32
72925;BME280;61070;50.794;7.054;2022-08-25T09:23:37;100913.50;;;29.06;39.00
72925;BME280;61070;50.794;7.054;2022-08-25T09:26:15;100905.91;;;28.89;39.08
72925;BME280;61070;50.794;7.054;2022-08-25T09:28:51;100897.97;;;29.07;38.94
72925;BME280;61070;50.794;7.054;2022-08-25T09:31:25;100897.59;;;29.11;39.11
72925;BME280;61070;50.794;7.054;2022-08-25T09:33:54;100894.91;;;29.21;38.94
72925;BME280;61070;50.794;7.054;2022-08-25T09:36:20;100895.63;;;29.44;38.50
72925;BME280;61070;50.794;7.054;2022-08-25T09:38:45;100891.38;;;29.30;38.83
72925;BME280;61070;50.794;7.054;2022-08-25T09:41:15;100895.53;;;29.45;38.17
72925;BME280;61070;50.794;7.054;2022-08-25T09:43:43;100882.25;;;100.33;38.02
72925;BME280;61070;50.794;7.054;2022-08-25T09:46:24;100890.22;;;29.74;38.19
72925;BME280;61070;50.794;7.054;2022-08-25T09:49:09;100887.00;;;30.00;37.66
72925;BME280;61070;50.794;7.054;2022-08-25T09:51:36;100888.53;;;-100.21;37.49
72925;BME280;61070;50.794;7.054;2022-08-25T09:59:23;100870.59;;;-7.81;36.51
72925;BME280;61070;50.794;7.054;2022-08-25T10:01:58;100858.34;;;-22.13;36.61
72925;BME280;61070;50.794;7.054;2022-08-25T10:04:36;100859.81;;;37.78;36.21
72925;BME280;61070;50.794;7.054;2022-08-25T10:07:26;100865.59;;;54.72;35.50
72925;BME280;61070;50.794;7.054;2022-08-25T10:09:56;100867.16;;;135.54;34.98
72925;BME280;61070;50.794;7.054;2022-08-25T10:15:24;100861.69;;;31.06;35.06
72925;BME280;61070;50.794;7.054;2022-08-25T10:22:47;100859.53;;;30.99;34.45
72925;BME280;61070;50.794;7.054;2022-08-25T10:33:14;100836.66;;;162.28;33.92
72925;BME280;61070;50.794;7.054;2022-08-25T10:35:55;100836.19;;;159.02;33.78
72925;BME280;61070;50.794;7.054;2022-08-25T10:38:35;100834.09;;;-144.43;33.85
72925;BME280;61070;50.794;7.054;2022-08-25T10:51:45;100812.72;;;9.12;32.46
72925;BME280;61070;50.794;7.054;2022-08-25T10:54:28;100813.16;;;31.82;32.26
72925;BME280;61070;50.794;7.054;2022-08-25T11:12:40;100800.25;;;-144.43;100.00
72925;BME280;61070;50.794;7.054;2022-08-25T11:15:29;100789.78;;;-144.43;30.27
72925;BME280;61070;50.794;7.054;2022-08-25T11:23:23;100783.25;;;32.34;29.17
72925;BME280;61070;50.794;7.054;2022-08-25T11:30:52;100784.19;;;32.60;27.80
72925;BME280;61070;50.794;7.054;2022-08-25T11:40:56;100786.06;;;105.55;30.42
72925;BME280;61070;50.794;7.054;2022-08-25T11:51:46;100770.88;;;32.48;30.76
72925;BME280;61070;50.794;7.054;2022-08-25T12:10:16;100741.47;;;32.22;29.75
72925;BME280;61070;50.794;7.054;2022-08-25T12:15:53;100749.66;;;32.76;28.55
72925;BME280;61070;50.794;7.054;2022-08-25T12:38:12;100730.38;;;-143.13;27.51
72925;BME280;61070;50.794;7.054;2022-08-25T12:43:11;100732.09;;;33.46;100.00
72925;BME280;61070;50.794;7.054;2022-08-25T12:57:06;100711.03;;;-144.43;59.88
72925;BME280;61070;50.794;7.054;2022-08-25T13:02:39;100703.25;;;96.42;29.01
72925;BME280;61070;50.794;7.054;2022-08-25T13:12:57;100691.97;;;-50.77;27.99
72925;BME280;61070;50.794;7.054;2022-08-25T13:15:36;100691.25;;;33.59;27.48
72925;BME280;61070;50.794;7.054;2022-08-25T13:23:02;100674.81;;;-97.61;100.00
72925;BME280;61070;50.794;7.054;2022-08-25T13:32:51;82119.94;;;-144.43;8.48
72925;BME280;61070;50.794;7.054;2022-08-25T13:35:24;43142.34;;;-144.43;100.00
72925;BME280;61070;50.794;7.054;2022-08-25T13:37:50;100675.75;;;-144.43;61.00
72925;BME280;61070;50.794;7.054;2022-08-25T13:42:43;100665.41;;;-97.61;24.45
72925;BME280;61070;50.794;7.054;2022-08-25T13:47:40;100657.31;;;68.40;24.67
72925;BME280;61070;50.794;7.054;2022-08-25T13:57:58;73459.75;;;-97.61;60.85
72925;BME280;61070;50.794;7.054;2022-08-25T14:00:36;73435.50;;;-144.43;60.99
72925;BME280;61070;50.794;7.054;2022-08-25T14:05:41;100645.84;;;33.90;23.38
72925;BME280;61070;50.794;7.054;2022-08-25T14:15:52;100629.47;;;34.29;23.22
72925;BME280;61070;50.794;7.054;2022-08-25T14:18:19;100629.47;;;-144.43;60.97
72925;BME280;61070;50.794;7.054;2022-08-25T14:20:51;73413.28;;;-144.43;100.00
72925;BME280;61070;50.794;7.054;2022-08-25T14:23:25;92578.28;;;-14.32;23.86
72925;BME280;61070;50.794;7.054;2022-08-25T14:25:54;100641.38;;;-144.43;23.82
72925;BME280;61070;50.794;7.054;2022-08-25T14:28:25;73439.56;;;34.19;23.85
72925;BME280;61070;50.794;7.054;2022-08-25T14:33:50;59852.91;;;-97.61;8.64
72925;BME280;61070;50.794;7.054;2022-08-25T14:38:41;82196.38;;;-144.43;8.65
72925;BME280;61070;50.794;7.054;2022-08-25T14:41:06;73409.25;;;187.07;61.03
72925;BME280;61070;50.794;7.054;2022-08-25T14:43:33;73409.25;;;-144.43;22.23
72925;BME280;61070;50.794;7.054;2022-08-25T14:45:59;100627.63;;;-144.43;61.03
72925;BME280;61070;50.794;7.054;2022-08-25T14:53:20;59852.91;;;-97.61;75.93
72925;BME280;61070;50.794;7.054;2022-08-25T15:00:41;59852.91;;;144.02;75.93
72925;BME280;61070;50.794;7.054;2022-08-25T15:03:06;100618.81;;;-144.43;61.17
72925;BME280;61070;50.794;7.054;2022-08-25T15:05:32;73376.94;;;-144.43;100.00
72925;BME280;61070;50.794;7.054;2022-08-25T15:10:41;73338.56;;;-97.61;61.29
72925;BME280;61070;50.794;7.054;2022-08-25T15:15:37;114681.47;;;-144.43;61.43
72925;BME280;61070;50.794;7.054;2022-08-25T15:27:46;73312.31;;;109.46;16.92
72925;BME280;61070;50.794;7.054;2022-08-25T15:30:12;73274.94;;;-144.43;22.51
72925;BME280;61070;50.794;7.054;2022-08-25T15:32:39;51490.72;;;-97.61;100.00
72925;BME280;61070;50.794;7.054;2022-08-25T15:35:04;73253.75;;;-144.43;22.45
72925;BME280;61070;50.794;7.054;2022-08-25T15:37:31;73238.34;;;-66.38;100.00
72925;BME280;61070;50.794;7.054;2022-08-25T15:39:56;73238.34;;;-144.43;100.00
72925;BME280;61070;50.794;7.054;2022-08-25T15:44:47;76945.88;;;-117.12;22.22
72925;BME280;61070;50.794;7.054;2022-08-25T15:47:12;78023.88;;;-109.32;22.72
72925;BME280;61070;50.794;7.054;2022-08-25T15:49:37;73243.66;;;-97.61;100.00
72925;BME280;61070;50.794;7.054;2022-08-25T16:04:12;79490.63;;;-144.43;61.99
72925;BME280;61070;50.794;7.054;2022-08-25T16:06:38;77371.81;;;-144.43;18.86
72925;BME280;61070;50.794;7.054;2022-08-25T16:09:05;92238.19;;;-144.43;100.00
72925;BME280;61070;50.794;7.054;2022-08-25T16:11:31;59852.91;;;-144.43;nan
72925;BME280;61070;50.794;7.054;2022-08-25T16:13:59;59852.91;;;80.13;9.14
72925;BME280;61070;50.794;7.054;2022-08-25T16:18:53;93575.22;;;-5.20;20.84
72925;BME280;61070;50.794;7.054;2022-08-25T16:21:28;59852.91;;;-144.43;100.00
72925;BME280;61070;50.794;7.054;2022-08-25T16:23:57;59852.91;;;-144.43;100.00
72925;BME280;61070;50.794;7.054;2022-08-25T16:26:23;59852.91;;;-144.43;100.00
72925;BME280;61070;50.794;7.054;2022-08-25T16:28:48;59852.91;;;-144.43;100.00
72925;BME280;61070;50.794;7.054;2022-08-25T16:31:15;59852.91;;;-144.43;100.00
72925;BME280;61070;50.794;7.054;2022-08-25T16:33:41;59852.91;;;-144.43;100.00
72925;BME280;61070;50.794;7.054;2022-08-25T16:38:43;59852.91;;;-144.43;100.00
72925;BME280;61070;50.794;7.054;2022-08-25T16:41:11;59852.91;;;-144.43;100.00
72925;BME280;61070;50.794;7.054;2022-08-25T16:46:08;59852.91;;;-144.43;nan